Prince, Canada
Current Conditions -  °F | °C
As of 3:00 PM on Thursday 18 Dec 2014 (Local Time) from CYQW Reporting Station
Overcast Overcast  
Wind Chill:   Ceiling: 500
Heat Index: 18°   Visibility: 7mi
Dew Point: 18°   Wind: 6mph
Humidity: 100%   Direction: 280°W
Pressure: 29.89"   Gusts: NA
Location:  52.97°N, 108.38°W
Report Text: CYQW 182100Z AUTO 28005KT 7SM OVC005 M08/M08 A2989 RMK SLP157
Loading
Personal Weather Stations






























Interactive Weather Map New forecast layout! Learn more

10-Day Weather Forecast

Advertisements
Track Severe Weather on mobile